Impacts METAR Board
IDs:

KMCO - Orlando Intl, FL, US

Updated at: 1500 UTC 20 Nov 2018
Potential Impact None Slight Moderate High
Time 20/03Z 20/04Z 20/05Z 20/06Z 20/07Z 20/08Z 20/09Z 20/10Z 20/11Z 20/12Z 20/13Z 20/14Z 20/15Z
Temp69 68 69 69 69 69 68 68 67 68 70 71 74
Dewpt66 66 66 66 66 67 66 66 65 67 67 68 69
Altim30.10 30.10 30.09 30.08 30.07 30.06 30.04 30.05 30.06 30.07 30.08 30.09 30.11
VIS10 10 10 10 10 10 10 10 10 10 10 10 10
CIG250 250 45 43 41 75 210 190 200 70 70 250 13
CoverBKNBKNOVCBKNOVCBKNBKNBKNBKNBKNBKNBKNOVC
FltCatVFRVFRVFRVFRVFRVFRVFRVFRVFRVFRVFRVFRMVFR
WX--------------------------
WDir6060206020340100702090000
WSpd5 4 5 3 3 4 3 3 3 3 0 3 0
WGst-- -- -- -- -- -- -- -- -- -- -- -- --
Raw hourly METARs
KMCO 200253Z 06005KT 10SM FEW090 BKN250 BKN300 21/19 A3010 RMK AO2 SLP189 T02060189 50005
KMCO 200353Z 06004KT 10SM FEW070 BKN250 20/19 A3010 RMK AO2 SLP192 T02000189
KMCO 200453Z 02005KT 10SM OVC045 21/19 A3009 RMK AO2 SLP186 T02060189 402720178
KMCO 200553Z 06003KT 10SM BKN043 BKN250 21/19 A3008 RMK AO2 SLP183 T02060189 10222 20200 58007
KMCO 200653Z 02003KT 10SM BKN041 OVC049 21/19 A3007 RMK AO2 SLP179 T02060189
KMCO 200753Z 34004KT 10SM SCT060 BKN075 21/19 A3006 RMK AO2 SLP177 T02060194
KMCO 200853Z 10003KT 10SM FEW045 SCT055 SCT190 BKN210 20/19 A3004 RMK AO2 SLP172 T02000189 58011
KMCO 200953Z 07003KT 10SM FEW075 SCT090 BKN190 20/19 A3005 RMK AO2 SLP173 T02000189
KMCO 201053Z 02003KT 10SM SCT060 SCT075 BKN200 19/18 A3006 RMK AO2 SLP176 T01940183
KMCO 201153Z 09003KT 10SM SCT055 BKN070 BKN250 20/19 A3007 RMK AO2 SLP179 T02000194 10206 20189 53007
KMCO 201253Z 00000KT 10SM SCT048 BKN070 BKN250 21/19 A3008 RMK AO2 SLP184 T02110194
KMCO 201353Z VRB03KT 10SM FEW045 SCT080 BKN250 22/20 A3009 RMK AO2 SLP188 T02170200
KMCO 201453Z 00000KT 10SM OVC013 23/21 A3011 RMK AO2 SLP194 T02330206 53015



Page loaded:  15:15 UTC  |   07:15 AM Pacific  |   08:15 AM Mountain  |   09:15 AM Central  |   10:15 AM Eastern

 

ADVISORIES

FORECASTS

FORECASTS

OBSERVATIONS

USER TOOLS

ABOUT US